Loveland, Oklahoma
Current Conditions -  °F | °C
As of 5:53 PM on Friday 21 Nov 2014 (Local Time) from KFDR Reporting Station
Clear Clear  
Wind Chill: 56°   Ceiling: Unl
Heat Index: 56°   Visibility: 10mi
Dew Point: 48°   Wind: 0mph
Humidity: 75%   Direction: NA
Pressure: 29.99"   Gusts: NA
Location:  34.31°N, 98.77°W
Report Text: KFDR 212353Z AUTO 00000KT 10SM CLR 13/09 A2999 RMK AO2 SLP152 T01330089 10167 20106 $
Loading
Personal Weather Stations






























Interactive Weather Map New forecast layout! Learn more

10-Day Weather Forecast

Advertisements
Track Severe Weather on mobile